Time;durP1;ratioP1;P1;durP2;ratioP2;P2;SDS_P1;SDS_P2;PMS_P1;PMS_P2;Temp;Humidity;BMP_temperature;BMP_pressure;BME280_temperature;BME280_humidity;BME280_pressure;Samples;Min_cycle;Max_cycle;Signal;HPM_P1;HPM_P2
2022/07/03 00:03:52;;;;;;;4.97;3.60;;;11.70;99.90;;;;;;8347054;28;20187;-63
2022/07/03 00:07:53;;;;;;;4.00;3.60;;;11.60;1.00;;;;;;8336875;28;20177;-64
2022/07/03 00:11:54;;;;;;;4.60;3.60;;;11.60;1.00;;;;;;8335227;28;20220;-64
2022/07/03 00:15:54;;;;;;;6.93;4.20;;;11.60;24.00;;;;;;8335229;28;20375;-64
2022/07/03 00:19:56;;;;;;;3.43;3.13;;;11.50;99.90;;;;;;8335012;28;20213;-64
2022/07/03 00:24:09;;;;;;;4.13;3.40;;;11.40;99.90;;;;;;8328582;28;20182;-64
2022/07/03 00:28:10;;;;;;;3.67;3.33;;;11.30;1.00;;;;;;8333169;28;20219;-64
2022/07/03 00:32:13;;;;;;;4.57;4.07;;;11.30;1.00;;;;;;8332744;28;20179;-64
2022/07/03 00:36:14;;;;;;;4.37;3.73;;;11.20;99.90;;;;;;8333644;28;20263;-64
2022/07/03 00:40:15;;;;;;;4.73;4.23;;;11.20;99.90;;;;;;8349768;28;20214;-64
2022/07/03 00:44:18;;;;;;;4.13;3.73;;;11.20;1.00;;;;;;8336101;28;20339;-64
2022/07/03 00:48:21;;;;;;;4.00;3.30;;;11.20;99.90;;;;;;8336008;28;20209;-64
2022/07/03 00:52:23;;;;;;;4.87;3.70;;;11.20;99.90;;;;;;8337271;28;20263;-64
2022/07/03 00:56:29;;;;;;;4.00;3.60;;;11.10;1.00;;;;;;8332894;28;20190;-64
2022/07/03 01:00:30;;;;;;;4.63;4.07;;;11.10;99.90;;;;;;8336707;28;20254;-64
2022/07/03 01:04:51;;;;;;;4.30;3.90;;;11.00;99.90;;;;;;8330665;28;20193;-63
2022/07/03 01:09:00;;;;;;;4.17;3.73;;;10.90;1.00;;;;;;8335090;28;20217;-63
2022/07/03 01:13:13;;;;;;;5.17;3.60;;;10.80;99.90;;;;;;8332660;28;20271;-63
2022/07/03 01:17:44;;;;;;;4.93;3.70;;;10.80;1.00;;;;;;8337259;28;20202;-63
2022/07/03 01:21:53;;;;;;;4.83;4.30;;;10.70;25.80;;;;;;8335352;28;20220;-63
2022/07/03 01:25:55;;;;;;;4.60;4.20;;;10.70;99.90;;;;;;8334149;28;20296;-63
2022/07/03 01:30:08;;;;;;;4.07;3.67;;;10.70;99.90;;;;;;8328925;28;20197;-62
2022/07/03 01:34:14;;;;;;;6.57;4.07;;;10.70;99.90;;;;;;8335292;28;20263;-63
2022/07/03 01:38:15;;;;;;;4.50;4.10;;;10.60;99.90;;;;;;8337067;28;20182;-63
2022/07/03 01:42:17;;;;;;;3.83;3.53;;;10.60;1.00;;;;;;8338299;28;20209;-63
2022/07/03 01:46:20;;;;;;;5.30;4.20;;;10.50;99.90;;;;;;8332601;28;20185;-62
2022/07/03 01:50:22;;;;;;;4.37;3.97;;;10.50;98.70;;;;;;8337136;28;20205;-62
2022/07/03 01:54:25;;;;;;;4.40;4.00;;;10.50;99.90;;;;;;8340484;28;20190;-63
2022/07/03 01:58:27;;;;;;;5.97;4.43;;;10.40;99.90;;;;;;8343317;28;20289;-63
2022/07/03 02:02:33;;;;;;;4.77;4.27;;;10.30;56.30;;;;;;8338077;28;20185;-62
2022/07/03 02:06:42;;;;;;;4.57;4.10;;;10.30;99.90;;;;;;8348069;28;20292;-64
2022/07/03 02:10:57;;;;;;;5.00;4.27;;;10.30;1.00;;;;;;8341502;28;20232;-63
2022/07/03 02:15:07;;;;;;;5.10;4.60;;;10.20;99.90;;;;;;8345970;28;20193;-64
2022/07/03 02:19:12;;;;;;;4.10;3.70;;;10.10;99.90;;;;;;8346701;28;20248;-62
2022/07/03 02:23:15;;;;;;;4.93;4.53;;;10.10;1.00;;;;;;8345162;28;20226;-64
2022/07/03 02:27:21;;;;;;;5.63;4.90;;;10.00;1.00;;;;;;8341189;28;20213;-63
2022/07/03 02:31:26;;;;;;;6.00;4.53;;;10.00;99.90;;;;;;8338380;28;20240;-64
2022/07/03 02:35:29;;;;;;;5.00;4.30;;;10.10;1.00;;;;;;8343613;28;20250;-63
2022/07/03 02:39:40;;;;;;;5.47;4.97;;;10.10;1.00;;;;;;8338313;28;20202;-63
2022/07/03 02:44:08;;;;;;;4.83;4.33;;;10.10;99.90;;;;;;8339922;28;20198;-63
2022/07/03 02:48:31;;;;;;;5.80;4.67;;;10.10;1.00;;;;;;8356436;28;20185;-63
2022/07/03 02:52:38;;;;;;;4.97;4.50;;;10.00;99.90;;;;;;8340739;28;20202;-63
2022/07/03 02:57:05;;;;;;;5.57;4.90;;;10.00;99.90;;;;;;8349553;28;20182;-63
2022/07/03 03:01:33;;;;;;;6.33;5.63;;;10.10;1.00;;;;;;8334876;28;20249;-62
2022/07/03 03:05:45;;;;;;;6.93;5.60;;;10.10;1.00;;;;;;8332750;28;20189;-63
2022/07/03 03:09:48;;;;;;;6.67;4.87;;;10.20;1.00;;;;;;8341369;28;20241;-63
2022/07/03 03:13:53;;;;;;;7.50;6.53;;;10.30;1.00;;;;;;8337588;28;20195;-63
2022/07/03 03:17:58;;;;;;;8.00;6.23;;;10.50;99.90;;;;;;8336847;28;20205;-64
2022/07/03 03:22:20;;;;;;;5.87;5.27;;;11.00;99.90;;;;;;8341159;28;20210;-63
2022/07/03 03:26:24;;;;;;;5.83;5.20;;;12.00;1.00;;;;;;8352883;28;20197;-64
2022/07/03 03:30:24;;;;;;;8.63;5.10;;;13.20;99.90;;;;;;8337581;28;20230;-64
2022/07/03 03:34:27;;;;;;;3.97;3.50;;;14.40;57.30;;;;;;8332380;28;20198;-64
2022/07/03 03:38:30;;;;;;;4.60;4.20;;;15.40;99.90;;;;;;8337882;28;20260;-64
2022/07/03 03:42:30;;;;;;;5.83;3.70;;;16.50;1.00;;;;;;8359148;28;20182;-64
2022/07/03 03:46:31;;;;;;;3.67;3.37;;;17.50;99.90;;;;;;8335148;28;20208;-64
2022/07/03 03:50:32;;;;;;;5.00;4.13;;;18.40;99.90;;;;;;8336968;28;20221;-64
2022/07/03 03:54:33;;;;;;;4.93;4.20;;;19.20;99.90;;;;;;8338822;28;20265;-64
2022/07/03 03:58:37;;;;;;;4.33;3.93;;;20.00;26.70;;;;;;8339014;28;20233;-65
2022/07/03 04:02:38;;;;;;;6.00;4.40;;;20.70;1.00;;;;;;8337301;28;20402;-67
2022/07/03 04:06:39;;;;;;;4.07;3.63;;;21.30;1.00;;;;;;8348135;28;20189;-68
2022/07/03 04:10:40;;;;;;;5.70;4.13;;;21.80;1.00;;;;;;8334459;28;20194;-65
2022/07/03 04:14:41;;;;;;;6.17;4.00;;;22.30;1.00;;;;;;8336986;28;20182;-66
2022/07/03 04:18:43;;;;;;;4.33;3.60;;;22.90;1.00;;;;;;8335875;28;20234;-62
2022/07/03 04:22:43;;;;;;;3.80;3.40;;;23.40;1.00;;;;;;8334882;28;20186;-69
2022/07/03 04:26:44;;;;;;;5.07;3.43;;;23.90;1.00;;;;;;8334205;28;20311;-65
2022/07/03 04:30:45;;;;;;;8.00;4.97;;;24.40;1.00;;;;;;8335678;28;20189;-67
2022/07/03 04:34:46;;;;;;;7.70;4.37;;;24.80;1.00;;;;;;8340922;28;20225;-65
2022/07/03 04:38:47;;;;;;;7.70;4.60;;;25.10;1.00;;;;;;8340133;28;20213;-67
2022/07/03 04:42:48;;;;;;;6.23;4.20;;;25.30;1.00;;;;;;8342800;28;20185;-66
2022/07/03 04:46:49;;;;;;;5.53;4.33;;;25.30;1.00;;;;;;8328680;28;20185;-68
2022/07/03 04:50:50;;;;;;;6.40;4.07;;;25.40;1.00;;;;;;8333937;28;20285;-64
2022/07/03 04:54:50;;;;;;;6.23;3.33;;;25.40;1.00;;;;;;8336963;28;20195;-64
2022/07/03 04:58:51;;;;;;;5.50;3.73;;;25.40;1.00;;;;;;8334253;28;20222;-64
2022/07/03 05:02:52;;;;;;;4.53;3.33;;;25.60;1.00;;;;;;8333583;28;20178;-63
2022/07/03 05:06:53;;;;;;;5.73;3.40;;;25.40;1.00;;;;;;8331194;28;20190;-65
2022/07/03 05:10:54;;;;;;;6.17;3.37;;;25.30;1.00;;;;;;8317502;28;21648;-62
2022/07/03 05:14:54;;;;;;;4.70;2.80;;;25.00;1.00;;;;;;8327477;28;20312;-66
2022/07/03 05:18:55;;;;;;;4.20;3.20;;;24.40;1.00;;;;;;8336704;28;20205;-67
2022/07/03 05:22:58;;;;;;;4.50;2.70;;;23.50;1.00;;;;;;8330502;28;20209;-64
2022/07/03 05:26:59;;;;;;;5.03;3.20;;;22.70;1.00;;;;;;8334381;28;20178;-67
2022/07/03 05:31:00;;;;;;;4.40;3.00;;;22.20;1.00;;;;;;8330726;28;20187;-66
2022/07/03 05:35:01;;;;;;;6.73;5.37;;;21.80;1.00;;;;;;8334640;28;20190;-65
2022/07/03 05:43:21;;;;;;;7.53;3.20;;;21.40;8.70;;;;;;8340079;28;20193;-64
2022/07/03 05:47:22;;;;;;;6.57;2.93;;;21.30;12.30;;;;;;8327160;28;20487;-66
2022/07/03 05:51:22;;;;;;;9.90;7.77;;;21.30;21.60;;;;;;8337452;28;20214;-66
2022/07/03 05:55:23;;;;;;;8.57;5.87;;;21.40;48.20;;;;;;8348429;28;20202;-66
2022/07/03 05:59:24;;;;;;;5.07;4.00;;;21.30;75.50;;;;;;8329844;28;20217;-65
2022/07/03 06:03:25;;;;;;;3.87;3.00;;;21.10;99.90;;;;;;8332899;28;20201;-68
2022/07/03 06:07:25;;;;;;;3.40;2.13;;;21.10;99.90;;;;;;8337021;28;20266;-67
2022/07/03 06:11:26;;;;;;;4.73;2.43;;;21.40;46.90;;;;;;8336446;28;20186;-65
2022/07/03 06:15:27;;;;;;;4.80;2.00;;;21.90;8.30;;;;;;8332314;28;20504;-68
2022/07/03 06:19:28;;;;;;;2.83;1.60;;;22.40;1.00;;;;;;8336119;28;20217;-67
2022/07/03 06:23:29;;;;;;;2.60;1.70;;;22.60;1.00;;;;;;8334922;28;20177;-67
2022/07/03 06:27:30;;;;;;;3.23;1.60;;;22.70;1.00;;;;;;8318812;28;20309;-65
2022/07/03 06:31:31;;;;;;;5.03;1.40;;;22.70;1.00;;;;;;8366210;28;20222;-64
2022/07/03 06:35:32;;;;;;;2.40;1.30;;;22.70;1.00;;;;;;8372282;28;20232;-65
2022/07/03 06:39:33;;;;;;;1.90;1.33;;;22.80;1.00;;;;;;8367374;28;20241;-65
2022/07/03 06:43:33;;;;;;;3.73;1.57;;;23.00;1.00;;;;;;8382784;28;20276;-63
2022/07/03 06:47:38;;;;;;;4.63;1.17;;;23.10;1.00;;;;;;8370075;28;20186;-66
2022/07/03 06:51:39;;;;;;;3.07;1.23;;;23.20;1.00;;;;;;8362887;28;20235;-65
2022/07/03 06:55:40;;;;;;;3.80;0.90;;;23.20;1.00;;;;;;8368493;28;20189;-70
2022/07/03 06:59:42;;;;;;;3.33;1.20;;;23.20;1.00;;;;;;8368087;28;20231;-65
2022/07/03 07:03:42;;;;;;;5.67;1.53;;;23.30;1.00;;;;;;8367368;28;20191;-68
2022/07/03 07:07:43;;;;;;;2.07;1.17;;;23.30;1.00;;;;;;8371342;28;20489;-68
2022/07/03 07:11:44;;;;;;;2.70;1.10;;;23.40;1.00;;;;;;8355581;28;20225;-65
2022/07/03 07:15:45;;;;;;;2.63;1.20;;;23.50;1.00;;;;;;8361204;28;20221;-70
2022/07/03 07:19:46;;;;;;;3.67;1.03;;;23.50;1.00;;;;;;8367160;28;20279;-68
2022/07/03 07:23:46;;;;;;;1.43;1.00;;;23.50;1.00;;;;;;8371572;28;20181;-72
2022/07/03 07:27:48;;;;;;;1.17;0.90;;;23.60;1.00;;;;;;8366097;28;20189;-70
2022/07/03 07:31:48;;;;;;;2.13;1.30;;;23.60;1.00;;;;;;8367000;28;20311;-68
2022/07/03 07:35:50;;;;;;;2.20;1.30;;;23.70;1.00;;;;;;8361216;28;20185;-71
2022/07/03 07:39:51;;;;;;;2.03;1.43;;;23.70;1.00;;;;;;8378990;28;20227;-68
2022/07/03 07:43:51;;;;;;;1.77;1.20;;;23.80;1.00;;;;;;8372100;28;20271;-70
2022/07/03 07:47:52;;;;;;;4.37;1.40;;;23.90;1.00;;;;;;8371552;28;20181;-67
2022/07/03 07:51:53;;;;;;;2.03;1.70;;;24.00;1.00;;;;;;8370344;28;20752;-68
2022/07/03 07:55:54;;;;;;;2.67;1.90;;;24.00;1.00;;;;;;8365470;28;20499;-66
2022/07/03 07:59:55;;;;;;;1.93;1.53;;;24.00;1.00;;;;;;8367067;28;20248;-68
2022/07/03 08:08:16;;;;;;;3.77;1.50;;;24.70;1.00;;;;;;8361479;28;20235;-68
2022/07/03 08:12:17;;;;;;;3.10;1.10;;;25.00;1.00;;;;;;8369560;28;20181;-68
2022/07/03 08:16:18;;;;;;;1.80;1.20;;;25.10;1.00;;;;;;8361418;28;20272;-71
2022/07/03 08:20:18;;;;;;;3.47;1.33;;;25.10;1.00;;;;;;8364835;28;20224;-66
2022/07/03 08:24:19;;;;;;;5.23;1.37;;;25.30;1.00;;;;;;8383987;28;20194;-68
2022/07/03 08:28:20;;;;;;;2.50;1.30;;;25.30;1.00;;;;;;8363646;28;20203;-65
2022/07/03 08:32:21;;;;;;;2.17;1.27;;;25.20;1.00;;;;;;8367343;28;20312;-67
2022/07/03 08:36:22;;;;;;;1.90;1.00;;;25.20;1.00;;;;;;8370995;28;20208;-67
2022/07/03 08:40:23;;;;;;;2.00;0.90;;;25.10;1.00;;;;;;8363922;28;20216;-67
2022/07/03 08:44:26;;;;;;;1.43;0.80;;;24.90;1.00;;;;;;8366724;28;20187;-68
2022/07/03 08:48:28;;;;;;;2.80;1.00;;;24.90;1.00;;;;;;8388129;28;20196;-70
2022/07/03 08:52:30;;;;;;;2.70;0.83;;;25.10;1.00;;;;;;8370605;28;20216;-67
2022/07/03 08:56:31;;;;;;;1.57;0.70;;;25.30;1.00;;;;;;8368206;28;20243;-68
2022/07/03 09:00:32;;;;;;;1.40;0.80;;;25.60;1.00;;;;;;8371019;28;20232;-69
2022/07/03 09:04:34;;;;;;;1.07;0.67;;;25.70;1.00;;;;;;8375623;28;20169;-68
2022/07/03 09:08:37;;;;;;;3.65;1.00;;;25.80;1.00;;;;;;8369303;28;20250;-68
2022/07/03 09:12:38;;;;;;;1.83;1.00;;;26.00;1.00;;;;;;8377000;28;20255;-68
2022/07/03 09:16:40;;;;;;;2.10;1.10;;;25.90;1.00;;;;;;8378555;28;20254;-66
2022/07/03 09:20:42;;;;;;;0.90;0.75;;;25.80;1.00;;;;;;8398292;28;20205;-69
2022/07/03 09:24:42;;;;;;;2.20;1.00;;;25.90;1.00;;;;;;8380554;28;20313;-71
2022/07/03 09:28:51;;;;;;;1.23;0.95;;;26.00;1.00;;;;;;8374715;28;20192;-68
2022/07/03 09:32:52;;;;;;;3.33;1.33;;;26.20;1.00;;;;;;8380313;28;20485;-68
2022/07/03 09:36:53;;;;;;;1.80;0.80;;;26.40;1.00;;;;;;8375031;28;20197;-71
2022/07/03 09:40:57;;;;;;;2.08;1.23;;;26.30;1.00;;;;;;8378788;28;20205;-65
2022/07/03 09:45:00;;;;;;;2.38;1.00;;;26.40;1.00;;;;;;8375155;28;20213;-68
2022/07/03 09:49:01;;;;;;;2.90;1.10;;;26.70;1.00;;;;;;8374886;28;20185;-67
2022/07/03 09:53:04;;;;;;;1.25;1.10;;;26.80;1.00;;;;;;8380435;28;20328;-64
2022/07/03 09:57:12;;;;;;;2.13;1.20;;;27.20;1.00;;;;;;8378071;28;20192;-69
2022/07/03 10:01:18;;;;;;;2.17;1.30;;;27.40;1.00;;;;;;8375003;28;20210;-68
2022/07/03 10:05:21;;;;;;;1.70;1.40;;;27.30;1.00;;;;;;8385171;28;20212;-67
2022/07/03 10:09:27;;;;;;;1.75;1.20;;;27.30;1.00;;;;;;8371965;28;20196;-66
2022/07/03 10:13:28;;;;;;;1.85;1.38;;;27.40;1.00;;;;;;8376010;28;20197;-66
2022/07/03 10:17:31;;;;;;;2.67;1.40;;;27.60;1.00;;;;;;8369078;28;20302;-66
2022/07/03 10:21:35;;;;;;;2.45;1.70;;;27.50;1.00;;;;;;8370072;28;20292;-69
2022/07/03 10:25:41;;;;;;;2.72;1.33;;;27.30;1.00;;;;;;8365000;28;20182;-70
2022/07/03 10:29:43;;;;;;;3.95;1.35;;;27.00;1.00;;;;;;8368114;28;20200;-69
2022/07/03 10:33:45;;;;;;;2.25;1.55;;;27.00;1.00;;;;;;8366739;28;20593;-68
2022/07/03 10:38:27;;;;;;;2.53;1.55;;;26.90;1.00;;;;;;8371826;28;20351;-67
2022/07/03 10:46:53;;;;;;;2.20;1.60;;;26.60;1.00;;;;;;8372418;28;20193;-71
2022/07/03 10:51:12;;;;;;;2.17;1.33;;;26.70;1.00;;;;;;8373120;28;20212;-66
2022/07/03 10:55:14;;;;;;;1.88;1.10;;;26.70;99.90;;;;;;8369803;28;20186;-66
2022/07/03 10:59:15;;;;;;;1.33;1.00;;;26.80;1.00;;;;;;8366464;28;20210;-68
2022/07/03 11:03:53;;;;;;;5.57;1.25;;;26.90;1.00;;;;;;8356037;28;20282;-69
2022/07/03 11:07:54;;;;;;;1.35;1.20;;;27.10;99.90;;;;;;8363043;28;20192;-64
2022/07/03 11:11:55;;;;;;;1.52;1.27;;;27.00;99.90;;;;;;8364851;28;20182;-65
2022/07/03 11:15:56;;;;;;;1.33;1.23;;;26.80;99.90;;;;;;8371599;28;20250;-69
2022/07/03 11:24:43;;;;;;;1.42;1.08;;;26.90;99.90;;;;;;8372761;28;20232;-66
2022/07/03 11:28:44;;;;;;;1.60;1.10;;;27.00;99.90;;;;;;8372129;28;20225;-68
2022/07/03 11:32:50;;;;;;;1.40;1.00;;;27.20;99.90;;;;;;8369644;28;20182;-66
2022/07/03 11:36:51;;;;;;;1.20;0.90;;;27.30;99.90;;;;;;8362354;28;20186;-65
2022/07/03 11:40:55;;;;;;;1.08;0.93;;;27.50;99.90;;;;;;8370156;28;20208;-68
2022/07/03 11:44:56;;;;;;;2.35;0.90;;;27.60;99.90;;;;;;8385509;28;20223;-64
2022/07/03 11:49:06;;;;;;;1.23;0.77;;;27.70;99.90;;;;;;8363172;28;20272;-65
2022/07/03 11:53:18;;;;;;;1.50;1.00;;;27.70;99.90;;;;;;8383705;28;20209;-65
2022/07/03 11:57:20;;;;;;;0.90;0.77;;;27.70;99.90;;;;;;8369907;28;21299;-66
2022/07/03 12:01:27;;;;;;;1.63;0.80;;;27.80;99.90;;;;;;8366049;28;20239;-66
2022/07/03 12:05:28;;;;;;;1.85;1.17;;;27.80;99.90;;;;;;8365509;28;20222;-65
2022/07/03 12:09:35;;;;;;;1.98;1.10;;;27.80;99.90;;;;;;8360597;28;20189;-68
2022/07/03 12:13:36;;;;;;;1.60;1.00;;;27.90;99.90;;;;;;8367589;28;20296;-65
2022/07/03 12:17:37;;;;;;;3.17;1.50;;;27.90;99.90;;;;;;8362927;28;20312;-69
2022/07/03 12:21:39;;;;;;;1.30;0.90;;;28.00;99.90;;;;;;8362112;28;20216;-70
2022/07/03 12:25:41;;;;;;;1.73;1.00;;;28.00;99.90;;;;;;8368204;28;20248;-67
2022/07/03 12:29:42;;;;;;;1.33;0.90;;;28.00;99.90;;;;;;8368999;28;20181;-69
2022/07/03 12:33:42;;;;;;;1.73;0.90;;;27.90;99.90;;;;;;8365929;28;20216;-68
2022/07/03 12:37:46;;;;;;;1.70;1.02;;;28.00;99.90;;;;;;8369326;28;20197;-64
2022/07/03 12:41:47;;;;;;;0.93;0.88;;;27.90;99.90;;;;;;8367497;28;20213;-66
2022/07/03 12:45:47;;;;;;;1.35;1.00;;;27.90;99.90;;;;;;8367643;28;20189;-69
2022/07/03 12:49:58;;;;;;;2.70;1.05;;;27.90;99.90;;;;;;8368788;28;20195;-66
2022/07/03 12:53:59;;;;;;;1.38;1.00;;;28.10;99.90;;;;;;8368240;28;20218;-65
2022/07/03 13:02:41;;;;;;;1.27;1.00;;;28.40;99.90;;;;;;8372416;28;20220;-66
2022/07/03 13:06:42;;;;;;;1.85;0.90;;;28.70;99.90;;;;;;8364588;28;20170;-64
2022/07/03 13:10:43;;;;;;;0.90;0.70;;;28.80;99.90;;;;;;8360193;28;20232;-67
2022/07/03 13:14:58;;;;;;;1.65;0.90;;;28.80;99.90;;;;;;8366643;28;20185;-63
2022/07/03 13:18:59;;;;;;;1.08;0.70;;;28.90;99.90;;;;;;8368932;28;20228;-66
2022/07/03 13:23:05;;;;;;;1.30;1.00;;;28.90;99.90;;;;;;8369386;28;20371;-68
2022/07/03 13:27:06;;;;;;;1.10;0.88;;;29.00;99.90;;;;;;8384224;28;20185;-65
2022/07/03 13:31:07;;;;;;;2.08;0.80;;;29.10;99.90;;;;;;8370901;28;21843;-69
2022/07/03 13:35:08;;;;;;;1.27;0.82;;;28.90;99.90;;;;;;8370979;28;20177;-67
2022/07/03 13:39:09;;;;;;;2.00;0.95;;;28.40;99.90;;;;;;8367706;28;20209;-65
2022/07/03 13:43:10;;;;;;;1.00;0.85;;;28.40;99.90;;;;;;8365337;28;20182;-67
2022/07/03 13:47:11;;;;;;;1.23;0.75;;;28.50;99.90;;;;;;8366686;28;20295;-66
2022/07/03 13:51:11;;;;;;;1.00;0.90;;;28.70;99.90;;;;;;8371307;28;20208;-63
2022/07/03 13:55:12;;;;;;;1.83;0.80;;;28.80;99.90;;;;;;8368613;28;20213;-69
2022/07/03 13:59:13;;;;;;;1.00;0.80;;;28.80;99.90;;;;;;8376327;28;20256;-66
2022/07/03 14:03:14;;;;;;;2.30;0.70;;;29.00;99.90;;;;;;8369557;28;20188;-66
2022/07/03 14:07:15;;;;;;;2.50;0.80;;;29.10;99.90;;;;;;8369333;28;20182;-65
2022/07/03 14:11:15;;;;;;;2.33;0.90;;;29.10;99.90;;;;;;8373058;28;20537;-64
2022/07/03 14:15:16;;;;;;;1.00;0.80;;;29.00;99.90;;;;;;8367676;28;20189;-68
2022/07/03 14:19:18;;;;;;;1.25;0.80;;;28.90;99.90;;;;;;8371899;28;20209;-67
2022/07/03 14:23:19;;;;;;;1.13;0.65;;;28.90;99.90;;;;;;8373596;28;20193;-65
2022/07/03 14:35:58;;;;;;;1.45;0.90;;;29.30;99.90;;;;;;8372333;28;20250;-64
2022/07/03 14:39:59;;;;;;;1.42;0.80;;;29.40;99.90;;;;;;8372002;28;20213;-66
2022/07/03 14:43:59;;;;;;;1.42;0.80;;;29.20;99.90;;;;;;8374514;28;20185;-65
2022/07/03 14:48:00;;;;;;;1.45;1.00;;;29.00;99.90;;;;;;8372838;28;20186;-65
2022/07/03 14:52:05;;;;;;;1.25;0.90;;;29.10;99.90;;;;;;8372845;28;20513;-65
2022/07/03 14:56:10;;;;;;;1.42;0.80;;;29.20;99.90;;;;;;8370575;28;20227;-64
2022/07/03 15:00:13;;;;;;;2.30;0.90;;;28.90;99.90;;;;;;8373036;28;20271;-65
2022/07/03 15:04:46;;;;;;;1.88;0.80;;;28.70;99.90;;;;;;8368185;28;20319;-68
2022/07/03 15:08:58;;;;;;;1.05;0.95;;;28.80;99.90;;;;;;8370964;28;20203;-64
2022/07/03 15:13:01;;;;;;;1.00;0.80;;;28.90;99.90;;;;;;8370939;28;20191;-67
2022/07/03 15:17:02;;;;;;;1.00;0.88;;;29.20;99.90;;;;;;8369336;28;20199;-64
2022/07/03 15:21:03;;;;;;;1.10;1.00;;;29.50;99.90;;;;;;8367128;28;20205;-63
2022/07/03 15:25:06;;;;;;;1.00;0.70;;;29.60;99.90;;;;;;8370815;28;20189;-65
2022/07/03 15:29:09;;;;;;;1.02;0.70;;;29.70;99.90;;;;;;8371568;28;20182;-65
2022/07/03 15:33:10;;;;;;;1.58;0.70;;;29.50;99.90;;;;;;8387359;28;20220;-66
2022/07/03 15:37:32;;;;;;;2.22;0.93;;;29.50;99.90;;;;;;8373277;28;20466;-66
2022/07/03 15:41:52;;;;;;;1.80;1.02;;;29.50;99.90;;;;;;8375923;28;20354;-63
2022/07/03 15:46:03;;;;;;;1.13;0.95;;;29.50;99.90;;;;;;8385575;28;20177;-67
2022/07/03 15:50:04;;;;;;;1.25;0.90;;;29.50;99.90;;;;;;8374561;28;20300;-64
2022/07/03 15:54:21;;;;;;;2.75;0.82;;;29.50;99.90;;;;;;8373238;28;20248;-65
2022/07/03 15:58:28;;;;;;;0.98;0.88;;;29.50;99.90;;;;;;8371364;28;20575;-68
2022/07/03 16:02:55;;;;;;;1.80;0.90;;;29.50;99.90;;;;;;8369501;28;20283;-68
2022/07/03 16:06:56;;;;;;;2.22;1.50;;;29.50;99.90;;;;;;8369160;28;20186;-65
2022/07/03 16:10:59;;;;;;;3.33;1.00;;;29.40;99.90;;;;;;8368617;28;20215;-67
2022/07/03 16:15:01;;;;;;;2.88;1.00;;;29.20;99.90;;;;;;8368114;28;20196;-74
2022/07/03 16:19:05;;;;;;;2.58;1.20;;;29.10;99.90;;;;;;8360998;28;20351;-68
2022/07/03 16:23:09;;;;;;;1.90;1.30;;;29.10;99.90;;;;;;8369436;28;20187;-67
2022/07/03 16:27:15;;;;;;;1.80;1.33;;;29.10;99.90;;;;;;8370565;28;20234;-65
2022/07/03 16:31:22;;;;;;;1.25;1.00;;;28.90;99.90;;;;;;8366080;28;20204;-67
2022/07/03 16:35:29;;;;;;;1.40;1.30;;;28.90;99.90;;;;;;8366865;28;20194;-65
2022/07/03 16:39:35;;;;;;;1.00;0.90;;;28.70;99.90;;;;;;8366337;28;20250;-64
2022/07/03 16:43:39;;;;;;;1.40;1.00;;;28.20;99.90;;;;;;8388163;28;20189;-66
2022/07/03 16:47:41;;;;;;;1.58;1.17;;;28.20;99.90;;;;;;8373094;28;20289;-63
2022/07/03 16:51:43;;;;;;;1.25;1.08;;;28.30;99.90;;;;;;8368101;28;20208;-65
2022/07/03 16:55:45;;;;;;;2.03;1.40;;;28.40;99.90;;;;;;8363399;28;20213;-65
2022/07/03 16:59:47;;;;;;;1.27;1.17;;;28.40;99.90;;;;;;8366537;28;20201;-66
2022/07/03 17:03:48;;;;;;;1.85;1.23;;;28.40;99.90;;;;;;8389244;28;20212;-70
2022/07/03 17:07:51;;;;;;;0.98;0.88;;;28.30;99.90;;;;;;8365765;28;20188;-65
2022/07/03 17:11:52;;;;;;;1.33;1.05;;;28.30;99.90;;;;;;8374610;28;20193;-66
2022/07/03 17:15:56;;;;;;;2.33;1.33;;;28.20;99.90;;;;;;8365063;28;20244;-66
2022/07/03 17:20:06;;;;;;;2.30;1.20;;;28.50;99.90;;;;;;8368966;28;20209;-64
2022/07/03 17:24:07;;;;;;;1.20;1.10;;;29.20;99.90;;;;;;8366088;28;20181;-64
2022/07/03 17:28:08;;;;;;;1.63;1.50;;;30.30;99.90;;;;;;8372672;28;20185;-65
2022/07/03 17:32:13;;;;;;;1.25;1.08;;;31.40;99.90;;;;;;8373822;28;20205;-63
2022/07/03 17:36:23;;;;;;;1.42;0.90;;;32.40;99.90;;;;;;8376424;28;20192;-63
2022/07/03 17:40:24;;;;;;;8.25;5.97;;;33.20;99.90;;;;;;8377997;28;20221;-67
2022/07/03 17:44:27;;;;;;;2.03;1.20;;;33.60;99.90;;;;;;8380098;28;20200;-64
2022/07/03 17:48:30;;;;;;;1.10;1.00;;;34.30;99.90;;;;;;8390193;28;20233;-65
2022/07/03 17:52:33;;;;;;;1.10;1.00;;;34.80;99.90;;;;;;8380586;28;20231;-65
2022/07/03 17:56:35;;;;;;;1.75;0.90;;;35.20;99.90;;;;;;8373744;28;20253;-64
2022/07/03 18:00:36;;;;;;;1.02;0.93;;;35.60;99.90;;;;;;8373540;28;20204;-63
2022/07/03 18:04:37;;;;;;;1.10;1.00;;;35.80;99.90;;;;;;8371793;28;20182;-65
2022/07/03 18:08:46;;;;;;;4.93;1.40;;;36.00;99.90;;;;;;8372326;28;20177;-67
2022/07/03 18:12:59;;;;;;;2.63;1.20;;;35.90;99.90;;;;;;8368269;28;20174;-64
2022/07/03 18:17:00;;;;;;;10.60;1.80;;;35.80;99.90;;;;;;8371565;28;20197;-64
2022/07/03 18:21:03;;;;;;;4.10;1.27;;;35.50;99.90;;;;;;8367053;28;20204;-68
2022/07/03 18:25:05;;;;;;;1.27;0.93;;;35.10;99.90;;;;;;8375560;28;20471;-64
2022/07/03 18:29:07;;;;;;;2.30;1.00;;;34.80;99.90;;;;;;8375086;28;20189;-63
2022/07/03 18:33:08;;;;;;;1.73;1.02;;;34.50;99.90;;;;;;8370038;28;20184;-63
2022/07/03 18:37:09;;;;;;;1.10;1.00;;;34.20;99.90;;;;;;8372768;28;20259;-65
2022/07/03 18:41:12;;;;;;;1.80;1.30;;;33.90;99.90;;;;;;8365409;28;20221;-63
2022/07/03 18:45:13;;;;;;;1.35;1.10;;;33.40;99.90;;;;;;8375585;28;20181;-63
2022/07/03 18:49:14;;;;;;;2.35;1.10;;;32.30;99.90;;;;;;8378914;28;20526;-61
2022/07/03 18:53:40;;;;;;;2.08;1.10;;;31.50;99.90;;;;;;8368778;28;20269;-65
2022/07/03 18:58:12;;;;;;;1.00;0.90;;;30.80;99.90;;;;;;8371358;28;21924;-65
2022/07/03 19:02:19;;;;;;;1.30;1.20;;;30.10;99.90;;;;;;8376033;28;20222;-66
2022/07/03 19:06:27;;;;;;;1.30;1.20;;;29.10;99.90;;;;;;8391984;28;20197;-66
2022/07/03 19:10:32;;;;;;;1.27;1.17;;;28.00;99.90;;;;;;8374967;28;20208;-66
2022/07/03 19:14:34;;;;;;;1.35;1.25;;;27.10;99.90;;;;;;8370585;28;20199;-65
2022/07/03 19:18:35;;;;;;;1.67;1.50;;;26.40;99.90;;;;;;8377270;28;20243;-65
2022/07/03 19:22:36;;;;;;;1.70;1.60;;;25.70;99.90;;;;;;8372967;28;20181;-66
2022/07/03 19:26:37;;;;;;;3.60;2.77;;;25.10;1.00;;;;;;8369598;28;20220;-64
2022/07/03 19:30:38;;;;;;;9.40;6.10;;;24.60;1.00;;;;;;8374589;28;20214;-66
2022/07/03 19:34:40;;;;;;;7.33;4.87;;;24.10;1.00;;;;;;8369301;28;20230;-64
2022/07/03 19:38:40;;;;;;;16.30;9.47;;;23.70;1.00;;;;;;8375006;28;20188;-63
2022/07/03 19:42:42;;;;;;;5.03;4.27;;;23.40;1.00;;;;;;8370023;28;20201;-68
2022/07/03 19:46:45;;;;;;;3.87;3.00;;;23.20;1.00;;;;;;8369075;28;20200;-68
2022/07/03 19:50:46;;;;;;;4.40;2.33;;;22.80;1.00;;;;;;8372046;28;20228;-67
2022/07/03 19:54:47;;;;;;;2.50;2.30;;;22.50;1.00;;;;;;8372609;28;20272;-68
2022/07/03 19:58:47;;;;;;;3.13;2.73;;;22.10;1.00;;;;;;8370738;28;20185;-66
2022/07/03 20:02:48;;;;;;;4.20;3.20;;;21.70;1.00;;;;;;8361415;28;21205;-67
2022/07/03 20:06:50;;;;;;;3.13;2.80;;;21.30;1.00;;;;;;8370780;28;20188;-69
2022/07/03 20:10:51;;;;;;;3.20;2.90;;;21.10;15.90;;;;;;8369494;28;20209;-66
2022/07/03 20:14:52;;;;;;;2.80;2.60;;;20.90;33.30;;;;;;8384388;28;20188;-65
2022/07/03 20:18:53;;;;;;;2.73;2.47;;;20.80;36.30;;;;;;8368793;28;20219;-67
2022/07/03 20:22:53;;;;;;;2.57;2.37;;;20.70;67.00;;;;;;8368445;28;20196;-65
2022/07/03 20:26:56;;;;;;;2.60;2.40;;;20.50;74.50;;;;;;8366720;28;20198;-64
2022/07/03 20:30:57;;;;;;;2.83;2.63;;;20.40;88.00;;;;;;8369370;28;20205;-66
2022/07/03 20:35:05;;;;;;;2.60;2.23;;;20.20;99.90;;;;;;8370639;28;20189;-64
2022/07/03 20:39:07;;;;;;;2.77;2.30;;;20.00;99.90;;;;;;8366031;28;20272;-65
2022/07/03 20:43:08;;;;;;;2.53;2.33;;;19.90;99.90;;;;;;8371449;28;20196;-66
2022/07/03 20:47:09;;;;;;;2.30;2.10;;;19.70;99.90;;;;;;8374910;28;20193;-69
2022/07/03 20:51:10;;;;;;;2.40;2.20;;;19.50;99.90;;;;;;8379804;28;20252;-64
2022/07/03 20:55:10;;;;;;;2.77;2.47;;;19.20;99.90;;;;;;8371304;28;20200;-66
2022/07/03 20:59:11;;;;;;;3.73;3.43;;;19.00;99.90;;;;;;8370933;28;20193;-62
2022/07/03 21:03:12;;;;;;;3.57;3.27;;;18.90;99.90;;;;;;8367553;28;20207;-64
2022/07/03 21:07:13;;;;;;;3.30;2.93;;;18.80;99.90;;;;;;8388542;28;20185;-66
2022/07/03 21:15:54;;;;;;;3.10;2.90;;;18.90;99.90;;;;;;8346179;28;20232;-66
2022/07/03 21:19:56;;;;;;;2.93;2.73;;;18.80;99.90;;;;;;8344762;28;20226;-65
2022/07/03 21:23:56;;;;;;;2.80;2.60;;;18.70;99.90;;;;;;8375224;28;20196;-64
2022/07/03 21:27:57;;;;;;;3.03;2.83;;;18.60;99.90;;;;;;8379046;28;20190;-65
2022/07/03 21:31:58;;;;;;;3.13;2.83;;;18.50;99.90;;;;;;8379052;28;20217;-64
2022/07/03 21:35:59;;;;;;;3.97;3.67;;;18.40;99.90;;;;;;8380215;28;20200;-61
2022/07/03 21:40:00;;;;;;;3.90;3.43;;;18.40;99.90;;;;;;8379685;28;20200;-64
2022/07/03 21:44:02;;;;;;;4.37;3.43;;;18.60;99.90;;;;;;8371739;28;20200;-66
2022/07/03 21:48:03;;;;;;;5.00;4.03;;;18.70;99.90;;;;;;8378155;28;20189;-63
2022/07/03 21:52:04;;;;;;;4.00;3.60;;;18.70;99.90;;;;;;8376844;28;20228;-65